sensor_id;sensor_type;location;lat;lon;timestamp;P1;durP1;ratioP1;P2;durP2;ratioP2
23712;SDS011;12035;49.978;8.298;2022-12-07T00:03:31;10.50;;;6.07;;
23712;SDS011;12035;49.978;8.298;2022-12-07T00:08:28;9.50;;;6.30;;
23712;SDS011;12035;49.978;8.298;2022-12-07T00:13:25;11.55;;;5.97;;
23712;SDS011;12035;49.978;8.298;2022-12-07T00:18:24;9.27;;;5.57;;
23712;SDS011;12035;49.978;8.298;2022-12-07T00:23:21;8.57;;;5.20;;
23712;SDS011;12035;49.978;8.298;2022-12-07T00:28:18;9.77;;;5.60;;
23712;SDS011;12035;49.978;8.298;2022-12-07T00:33:15;9.98;;;5.75;;
23712;SDS011;12035;49.978;8.298;2022-12-07T00:38:13;9.23;;;5.15;;
23712;SDS011;12035;49.978;8.298;2022-12-07T00:43:10;8.10;;;4.97;;
23712;SDS011;12035;49.978;8.298;2022-12-07T00:48:08;8.75;;;5.30;;
23712;SDS011;12035;49.978;8.298;2022-12-07T00:53:05;9.18;;;5.15;;
23712;SDS011;12035;49.978;8.298;2022-12-07T00:58:03;8.70;;;5.05;;
23712;SDS011;12035;49.978;8.298;2022-12-07T01:03:00;12.10;;;5.93;;
23712;SDS011;12035;49.978;8.298;2022-12-07T01:07:58;12.80;;;5.68;;
23712;SDS011;12035;49.978;8.298;2022-12-07T01:12:55;8.68;;;4.82;;
23712;SDS011;12035;49.978;8.298;2022-12-07T01:17:54;10.48;;;5.35;;
23712;SDS011;12035;49.978;8.298;2022-12-07T01:22:51;9.63;;;5.00;;
23712;SDS011;12035;49.978;8.298;2022-12-07T01:27:48;9.00;;;4.78;;
23712;SDS011;12035;49.978;8.298;2022-12-07T01:32:45;8.65;;;4.80;;
23712;SDS011;12035;49.978;8.298;2022-12-07T01:37:44;8.30;;;4.30;;
23712;SDS011;12035;49.978;8.298;2022-12-07T01:42:41;7.05;;;4.40;;
23712;SDS011;12035;49.978;8.298;2022-12-07T01:47:38;7.45;;;4.50;;
23712;SDS011;12035;49.978;8.298;2022-12-07T01:52:35;7.75;;;4.63;;
23712;SDS011;12035;49.978;8.298;2022-12-07T01:57:38;8.43;;;5.00;;
23712;SDS011;12035;49.978;8.298;2022-12-07T02:02:39;8.05;;;4.28;;
23712;SDS011;12035;49.978;8.298;2022-12-07T02:07:42;7.72;;;4.60;;
23712;SDS011;12035;49.978;8.298;2022-12-07T02:12:40;7.57;;;3.83;;
23712;SDS011;12035;49.978;8.298;2022-12-07T02:17:41;8.07;;;4.03;;
23712;SDS011;12035;49.978;8.298;2022-12-07T02:28:51;7.77;;;4.67;;
23712;SDS011;12035;49.978;8.298;2022-12-07T02:34:05;6.68;;;4.07;;
23712;SDS011;12035;49.978;8.298;2022-12-07T02:39:09;7.38;;;4.40;;
23712;SDS011;12035;49.978;8.298;2022-12-07T02:44:15;7.70;;;4.18;;
23712;SDS011;12035;49.978;8.298;2022-12-07T02:49:16;7.65;;;4.70;;
23712;SDS011;12035;49.978;8.298;2022-12-07T02:54:15;7.57;;;4.40;;
23712;SDS011;12035;49.978;8.298;2022-12-07T02:59:17;8.60;;;4.60;;
23712;SDS011;12035;49.978;8.298;2022-12-07T03:04:30;7.22;;;4.32;;
23712;SDS011;12035;49.978;8.298;2022-12-07T03:09:37;8.70;;;4.22;;
23712;SDS011;12035;49.978;8.298;2022-12-07T03:14:49;10.98;;;4.47;;
23712;SDS011;12035;49.978;8.298;2022-12-07T03:20:04;5.85;;;3.70;;
23712;SDS011;12035;49.978;8.298;2022-12-07T03:25:04;6.78;;;3.83;;
23712;SDS011;12035;49.978;8.298;2022-12-07T03:30:07;6.18;;;3.40;;
23712;SDS011;12035;49.978;8.298;2022-12-07T03:35:09;6.38;;;3.63;;
23712;SDS011;12035;49.978;8.298;2022-12-07T03:40:12;6.53;;;3.75;;
23712;SDS011;12035;49.978;8.298;2022-12-07T03:45:16;7.15;;;3.90;;
23712;SDS011;12035;49.978;8.298;2022-12-07T03:50:15;6.35;;;3.88;;
23712;SDS011;12035;49.978;8.298;2022-12-07T03:55:24;5.70;;;3.65;;
23712;SDS011;12035;49.978;8.298;2022-12-07T04:00:27;7.55;;;4.22;;
23712;SDS011;12035;49.978;8.298;2022-12-07T04:05:25;7.80;;;4.22;;
23712;SDS011;12035;49.978;8.298;2022-12-07T04:10:22;6.57;;;3.63;;
23712;SDS011;12035;49.978;8.298;2022-12-07T04:15:23;7.90;;;4.22;;
23712;SDS011;12035;49.978;8.298;2022-12-07T04:20:21;7.50;;;4.10;;
23712;SDS011;12035;49.978;8.298;2022-12-07T04:25:19;7.07;;;3.90;;
23712;SDS011;12035;49.978;8.298;2022-12-07T04:30:16;8.48;;;4.75;;
23712;SDS011;12035;49.978;8.298;2022-12-07T04:35:13;7.97;;;4.60;;
23712;SDS011;12035;49.978;8.298;2022-12-07T04:40:12;7.03;;;4.40;;
23712;SDS011;12035;49.978;8.298;2022-12-07T04:45:09;8.15;;;5.10;;
23712;SDS011;12035;49.978;8.298;2022-12-07T04:50:07;8.15;;;5.10;;
23712;SDS011;12035;49.978;8.298;2022-12-07T04:55:06;8.10;;;5.07;;
23712;SDS011;12035;49.978;8.298;2022-12-07T05:00:09;8.93;;;4.97;;
23712;SDS011;12035;49.978;8.298;2022-12-07T05:05:07;6.75;;;4.07;;
23712;SDS011;12035;49.978;8.298;2022-12-07T05:10:05;8.43;;;4.97;;
23712;SDS011;12035;49.978;8.298;2022-12-07T05:15:03;9.43;;;5.00;;
23712;SDS011;12035;49.978;8.298;2022-12-07T05:20:04;9.55;;;5.30;;
23712;SDS011;12035;49.978;8.298;2022-12-07T05:25:03;8.68;;;5.20;;
23712;SDS011;12035;49.978;8.298;2022-12-07T05:30:06;7.47;;;5.22;;
23712;SDS011;12035;49.978;8.298;2022-12-07T05:35:04;9.73;;;6.05;;
23712;SDS011;12035;49.978;8.298;2022-12-07T05:40:02;11.80;;;6.18;;
23712;SDS011;12035;49.978;8.298;2022-12-07T05:45:02;7.85;;;5.28;;
23712;SDS011;12035;49.978;8.298;2022-12-07T05:50:03;8.05;;;5.00;;
23712;SDS011;12035;49.978;8.298;2022-12-07T05:55:02;9.10;;;5.45;;
23712;SDS011;12035;49.978;8.298;2022-12-07T06:00:02;8.65;;;5.63;;
23712;SDS011;12035;49.978;8.298;2022-12-07T06:05:02;8.32;;;5.25;;
23712;SDS011;12035;49.978;8.298;2022-12-07T06:10:00;8.45;;;5.72;;
23712;SDS011;12035;49.978;8.298;2022-12-07T06:14:57;9.63;;;6.00;;
23712;SDS011;12035;49.978;8.298;2022-12-07T06:19:54;8.27;;;5.70;;
23712;SDS011;12035;49.978;8.298;2022-12-07T06:24:53;10.30;;;6.00;;
23712;SDS011;12035;49.978;8.298;2022-12-07T06:29:50;10.88;;;5.82;;
23712;SDS011;12035;49.978;8.298;2022-12-07T06:34:47;9.98;;;5.32;;
23712;SDS011;12035;49.978;8.298;2022-12-07T06:39:44;9.43;;;5.75;;
23712;SDS011;12035;49.978;8.298;2022-12-07T06:44:42;10.10;;;6.13;;
23712;SDS011;12035;49.978;8.298;2022-12-07T06:49:40;9.20;;;5.85;;
23712;SDS011;12035;49.978;8.298;2022-12-07T06:54:37;8.82;;;5.63;;
23712;SDS011;12035;49.978;8.298;2022-12-07T06:59:34;9.05;;;5.75;;
23712;SDS011;12035;49.978;8.298;2022-12-07T07:04:32;9.68;;;6.03;;
23712;SDS011;12035;49.978;8.298;2022-12-07T07:09:29;9.23;;;5.85;;
23712;SDS011;12035;49.978;8.298;2022-12-07T07:14:26;9.52;;;5.82;;
23712;SDS011;12035;49.978;8.298;2022-12-07T07:19:23;8.75;;;5.85;;
23712;SDS011;12035;49.978;8.298;2022-12-07T07:24:22;12.05;;;5.57;;
23712;SDS011;12035;49.978;8.298;2022-12-07T07:29:19;8.50;;;5.38;;
23712;SDS011;12035;49.978;8.298;2022-12-07T07:34:16;8.13;;;5.38;;
23712;SDS011;12035;49.978;8.298;2022-12-07T07:39:13;8.32;;;5.18;;
23712;SDS011;12035;49.978;8.298;2022-12-07T07:44:12;8.10;;;5.20;;
23712;SDS011;12035;49.978;8.298;2022-12-07T07:49:10;8.10;;;5.25;;
23712;SDS011;12035;49.978;8.298;2022-12-07T07:54:07;9.15;;;5.45;;
23712;SDS011;12035;49.978;8.298;2022-12-07T07:59:04;8.75;;;5.38;;
23712;SDS011;12035;49.978;8.298;2022-12-07T08:04:02;9.18;;;4.75;;
23712;SDS011;12035;49.978;8.298;2022-12-07T08:09:00;7.72;;;5.47;;
23712;SDS011;12035;49.978;8.298;2022-12-07T08:13:57;8.43;;;5.28;;
23712;SDS011;12035;49.978;8.298;2022-12-07T08:18:54;12.90;;;5.13;;
23712;SDS011;12035;49.978;8.298;2022-12-07T08:23:52;8.57;;;5.05;;
23712;SDS011;12035;49.978;8.298;2022-12-07T08:28:49;9.00;;;5.15;;
23712;SDS011;12035;49.978;8.298;2022-12-07T08:33:47;9.52;;;5.07;;
23712;SDS011;12035;49.978;8.298;2022-12-07T08:38:45;8.35;;;5.20;;
23712;SDS011;12035;49.978;8.298;2022-12-07T08:43:43;9.90;;;5.53;;
23712;SDS011;12035;49.978;8.298;2022-12-07T08:48:41;7.63;;;4.95;;
23712;SDS011;12035;49.978;8.298;2022-12-07T08:53:45;8.80;;;5.20;;
23712;SDS011;12035;49.978;8.298;2022-12-07T08:58:49;7.05;;;4.82;;
23712;SDS011;12035;49.978;8.298;2022-12-07T09:03:50;10.18;;;5.68;;
23712;SDS011;12035;49.978;8.298;2022-12-07T09:08:49;8.07;;;4.80;;
23712;SDS011;12035;49.978;8.298;2022-12-07T09:13:53;7.95;;;5.18;;
23712;SDS011;12035;49.978;8.298;2022-12-07T09:18:50;10.00;;;5.25;;
23712;SDS011;12035;49.978;8.298;2022-12-07T09:23:48;7.22;;;4.63;;
23712;SDS011;12035;49.978;8.298;2022-12-07T09:28:47;6.70;;;4.15;;
23712;SDS011;12035;49.978;8.298;2022-12-07T09:33:52;6.47;;;4.20;;
23712;SDS011;12035;49.978;8.298;2022-12-07T09:38:51;7.35;;;3.80;;
23712;SDS011;12035;49.978;8.298;2022-12-07T09:43:50;6.18;;;3.20;;
23712;SDS011;12035;49.978;8.298;2022-12-07T09:48:50;4.55;;;2.80;;
23712;SDS011;12035;49.978;8.298;2022-12-07T09:53:49;5.45;;;3.05;;
23712;SDS011;12035;49.978;8.298;2022-12-07T09:58:49;4.95;;;2.72;;
23712;SDS011;12035;49.978;8.298;2022-12-07T10:03:49;6.60;;;2.78;;
23712;SDS011;12035;49.978;8.298;2022-12-07T10:08:52;7.90;;;3.25;;
23712;SDS011;12035;49.978;8.298;2022-12-07T10:13:51;8.30;;;3.28;;
23712;SDS011;12035;49.978;8.298;2022-12-07T10:18:50;5.80;;;2.95;;
23712;SDS011;12035;49.978;8.298;2022-12-07T10:29:14;5.30;;;2.70;;
23712;SDS011;12035;49.978;8.298;2022-12-07T10:34:22;3.78;;;2.20;;
23712;SDS011;12035;49.978;8.298;2022-12-07T10:39:25;3.42;;;1.70;;
23712;SDS011;12035;49.978;8.298;2022-12-07T10:44:24;3.85;;;1.90;;
23712;SDS011;12035;49.978;8.298;2022-12-07T10:54:55;4.88;;;1.75;;
23712;SDS011;12035;49.978;8.298;2022-12-07T11:00:11;6.70;;;1.70;;
23712;SDS011;12035;49.978;8.298;2022-12-07T11:05:18;5.35;;;1.65;;
23712;SDS011;12035;49.978;8.298;2022-12-07T11:10:23;3.33;;;1.60;;
23712;SDS011;12035;49.978;8.298;2022-12-07T11:20:39;3.70;;;1.50;;
23712;SDS011;12035;49.978;8.298;2022-12-07T11:25:45;3.88;;;1.30;;
23712;SDS011;12035;49.978;8.298;2022-12-07T11:30:52;5.10;;;1.30;;
23712;SDS011;12035;49.978;8.298;2022-12-07T11:36:04;3.53;;;1.20;;
23712;SDS011;12035;49.978;8.298;2022-12-07T11:41:13;2.45;;;0.93;;
23712;SDS011;12035;49.978;8.298;2022-12-07T11:46:18;2.40;;;0.75;;
23712;SDS011;12035;49.978;8.298;2022-12-07T11:51:22;3.17;;;1.08;;
23712;SDS011;12035;49.978;8.298;2022-12-07T11:56:22;1.83;;;0.80;;
23712;SDS011;12035;49.978;8.298;2022-12-07T12:01:26;4.30;;;1.05;;
23712;SDS011;12035;49.978;8.298;2022-12-07T12:06:38;2.35;;;0.88;;
23712;SDS011;12035;49.978;8.298;2022-12-07T12:11:41;4.10;;;1.10;;
23712;SDS011;12035;49.978;8.298;2022-12-07T12:17:29;1.52;;;0.75;;
23712;SDS011;12035;49.978;8.298;2022-12-07T12:22:50;1.35;;;0.68;;
23712;SDS011;12035;49.978;8.298;2022-12-07T12:27:54;2.92;;;1.38;;
23712;SDS011;12035;49.978;8.298;2022-12-07T12:32:54;3.05;;;1.10;;
23712;SDS011;12035;49.978;8.298;2022-12-07T12:43:42;4.63;;;1.10;;
23712;SDS011;12035;49.978;8.298;2022-12-07T12:48:47;2.80;;;1.10;;
23712;SDS011;12035;49.978;8.298;2022-12-07T12:53:45;3.55;;;0.90;;
23712;SDS011;12035;49.978;8.298;2022-12-07T12:58:43;4.13;;;0.90;;
23712;SDS011;12035;49.978;8.298;2022-12-07T13:03:50;4.68;;;1.17;;
23712;SDS011;12035;49.978;8.298;2022-12-07T13:13:48;2.92;;;1.20;;
23712;SDS011;12035;49.978;8.298;2022-12-07T13:18:45;2.25;;;0.80;;
23712;SDS011;12035;49.978;8.298;2022-12-07T13:23:54;2.42;;;0.88;;
23712;SDS011;12035;49.978;8.298;2022-12-07T13:29:04;4.28;;;0.90;;
23712;SDS011;12035;49.978;8.298;2022-12-07T13:39:28;2.92;;;0.98;;
23712;SDS011;12035;49.978;8.298;2022-12-07T13:44:26;3.45;;;0.93;;
23712;SDS011;12035;49.978;8.298;2022-12-07T13:49:26;4.00;;;1.10;;
23712;SDS011;12035;49.978;8.298;2022-12-07T13:54:25;2.22;;;0.95;;
23712;SDS011;12035;49.978;8.298;2022-12-07T13:59:27;5.00;;;1.08;;
23712;SDS011;12035;49.978;8.298;2022-12-07T14:04:32;2.85;;;1.25;;
23712;SDS011;12035;49.978;8.298;2022-12-07T14:09:33;2.95;;;1.00;;
23712;SDS011;12035;49.978;8.298;2022-12-07T14:14:30;3.50;;;1.30;;
23712;SDS011;12035;49.978;8.298;2022-12-07T14:19:40;3.92;;;1.15;;
23712;SDS011;12035;49.978;8.298;2022-12-07T14:24:42;1.95;;;0.93;;
23712;SDS011;12035;49.978;8.298;2022-12-07T14:29:40;4.18;;;1.10;;
23712;SDS011;12035;49.978;8.298;2022-12-07T14:34:37;5.05;;;1.08;;
23712;SDS011;12035;49.978;8.298;2022-12-07T14:39:34;3.60;;;1.10;;
23712;SDS011;12035;49.978;8.298;2022-12-07T14:44:33;2.90;;;1.10;;
23712;SDS011;12035;49.978;8.298;2022-12-07T14:49:30;3.38;;;0.98;;
23712;SDS011;12035;49.978;8.298;2022-12-07T14:54:27;2.88;;;1.13;;
23712;SDS011;12035;49.978;8.298;2022-12-07T14:59:27;4.13;;;1.40;;
23712;SDS011;12035;49.978;8.298;2022-12-07T15:09:23;6.70;;;1.58;;
23712;SDS011;12035;49.978;8.298;2022-12-07T15:14:20;4.82;;;1.70;;
23712;SDS011;12035;49.978;8.298;2022-12-07T15:19:17;3.25;;;1.10;;
23712;SDS011;12035;49.978;8.298;2022-12-07T15:24:19;1.92;;;0.95;;
23712;SDS011;12035;49.978;8.298;2022-12-07T15:29:17;2.80;;;0.98;;
23712;SDS011;12035;49.978;8.298;2022-12-07T15:34:14;3.25;;;0.80;;
23712;SDS011;12035;49.978;8.298;2022-12-07T15:39:11;2.20;;;1.30;;
23712;SDS011;12035;49.978;8.298;2022-12-07T15:44:09;2.75;;;0.95;;
23712;SDS011;12035;49.978;8.298;2022-12-07T15:49:26;1.70;;;0.90;;
23712;SDS011;12035;49.978;8.298;2022-12-07T15:54:24;2.58;;;1.00;;
23712;SDS011;12035;49.978;8.298;2022-12-07T15:59:25;2.83;;;1.10;;
23712;SDS011;12035;49.978;8.298;2022-12-07T16:04:24;1.67;;;0.80;;
23712;SDS011;12035;49.978;8.298;2022-12-07T16:09:24;2.85;;;0.90;;
23712;SDS011;12035;49.978;8.298;2022-12-07T16:14:21;3.80;;;1.08;;
23712;SDS011;12035;49.978;8.298;2022-12-07T16:19:20;2.33;;;1.13;;
23712;SDS011;12035;49.978;8.298;2022-12-07T16:24:17;3.28;;;0.98;;
23712;SDS011;12035;49.978;8.298;2022-12-07T16:29:20;3.20;;;1.13;;
23712;SDS011;12035;49.978;8.298;2022-12-07T16:34:21;6.13;;;1.20;;
23712;SDS011;12035;49.978;8.298;2022-12-07T16:39:18;3.45;;;1.25;;
23712;SDS011;12035;49.978;8.298;2022-12-07T16:44:15;3.20;;;1.20;;
23712;SDS011;12035;49.978;8.298;2022-12-07T16:49:13;1.75;;;1.00;;
23712;SDS011;12035;49.978;8.298;2022-12-07T16:54:13;2.33;;;0.90;;
23712;SDS011;12035;49.978;8.298;2022-12-07T16:59:10;5.03;;;1.10;;
23712;SDS011;12035;49.978;8.298;2022-12-07T17:04:07;3.45;;;1.20;;
23712;SDS011;12035;49.978;8.298;2022-12-07T17:09:05;2.65;;;1.02;;
23712;SDS011;12035;49.978;8.298;2022-12-07T17:14:06;3.83;;;1.80;;
23712;SDS011;12035;49.978;8.298;2022-12-07T17:19:20;4.90;;;1.98;;
23712;SDS011;12035;49.978;8.298;2022-12-07T17:24:18;3.80;;;1.95;;
23712;SDS011;12035;49.978;8.298;2022-12-07T17:29:16;4.57;;;1.90;;
23712;SDS011;12035;49.978;8.298;2022-12-07T17:34:14;3.20;;;2.00;;
23712;SDS011;12035;49.978;8.298;2022-12-07T17:39:13;5.13;;;2.13;;
23712;SDS011;12035;49.978;8.298;2022-12-07T17:44:13;4.75;;;2.50;;
23712;SDS011;12035;49.978;8.298;2022-12-07T17:49:15;5.45;;;2.20;;
23712;SDS011;12035;49.978;8.298;2022-12-07T17:54:12;5.20;;;2.33;;
23712;SDS011;12035;49.978;8.298;2022-12-07T17:59:10;4.13;;;2.05;;
23712;SDS011;12035;49.978;8.298;2022-12-07T18:04:09;4.25;;;1.92;;
23712;SDS011;12035;49.978;8.298;2022-12-07T18:09:07;3.90;;;2.22;;
23712;SDS011;12035;49.978;8.298;2022-12-07T18:14:06;4.18;;;2.38;;
23712;SDS011;12035;49.978;8.298;2022-12-07T18:19:04;4.50;;;2.30;;
23712;SDS011;12035;49.978;8.298;2022-12-07T18:24:09;5.32;;;2.35;;
23712;SDS011;12035;49.978;8.298;2022-12-07T18:29:09;4.25;;;2.20;;
23712;SDS011;12035;49.978;8.298;2022-12-07T18:34:10;4.13;;;2.17;;
23712;SDS011;12035;49.978;8.298;2022-12-07T18:39:11;4.53;;;2.40;;
23712;SDS011;12035;49.978;8.298;2022-12-07T18:44:10;7.97;;;3.00;;
23712;SDS011;12035;49.978;8.298;2022-12-07T18:49:08;6.28;;;3.05;;
23712;SDS011;12035;49.978;8.298;2022-12-07T18:54:07;5.13;;;2.45;;
23712;SDS011;12035;49.978;8.298;2022-12-07T18:59:06;5.55;;;3.08;;
23712;SDS011;12035;49.978;8.298;2022-12-07T19:04:24;6.13;;;3.00;;
23712;SDS011;12035;49.978;8.298;2022-12-07T19:09:21;6.05;;;3.33;;
23712;SDS011;12035;49.978;8.298;2022-12-07T19:14:21;6.57;;;3.38;;
23712;SDS011;12035;49.978;8.298;2022-12-07T19:19:21;6.43;;;2.97;;
23712;SDS011;12035;49.978;8.298;2022-12-07T19:24:24;5.63;;;3.10;;
23712;SDS011;12035;49.978;8.298;2022-12-07T19:29:23;4.75;;;2.50;;
23712;SDS011;12035;49.978;8.298;2022-12-07T19:34:22;6.35;;;2.88;;
23712;SDS011;12035;49.978;8.298;2022-12-07T19:39:19;5.30;;;2.88;;
23712;SDS011;12035;49.978;8.298;2022-12-07T19:44:17;6.50;;;3.45;;
23712;SDS011;12035;49.978;8.298;2022-12-07T19:49:18;6.40;;;2.88;;
23712;SDS011;12035;49.978;8.298;2022-12-07T19:54:18;5.28;;;3.28;;
23712;SDS011;12035;49.978;8.298;2022-12-07T19:59:18;4.82;;;3.05;;
23712;SDS011;12035;49.978;8.298;2022-12-07T20:04:19;12.60;;;5.38;;
23712;SDS011;12035;49.978;8.298;2022-12-07T20:09:19;10.30;;;5.70;;
23712;SDS011;12035;49.978;8.298;2022-12-07T20:14:16;7.10;;;3.90;;
23712;SDS011;12035;49.978;8.298;2022-12-07T20:19:13;7.03;;;4.05;;
23712;SDS011;12035;49.978;8.298;2022-12-07T20:24:13;8.07;;;3.97;;
23712;SDS011;12035;49.978;8.298;2022-12-07T20:29:14;8.40;;;3.67;;
23712;SDS011;12035;49.978;8.298;2022-12-07T20:34:13;7.80;;;4.10;;
23712;SDS011;12035;49.978;8.298;2022-12-07T20:39:10;7.65;;;4.55;;
23712;SDS011;12035;49.978;8.298;2022-12-07T20:44:09;7.55;;;3.45;;
23712;SDS011;12035;49.978;8.298;2022-12-07T20:49:10;7.35;;;3.60;;
23712;SDS011;12035;49.978;8.298;2022-12-07T20:54:09;7.22;;;4.07;;
23712;SDS011;12035;49.978;8.298;2022-12-07T20:59:09;6.45;;;3.97;;
23712;SDS011;12035;49.978;8.298;2022-12-07T21:04:09;8.23;;;4.22;;
23712;SDS011;12035;49.978;8.298;2022-12-07T21:09:08;9.68;;;4.47;;
23712;SDS011;12035;49.978;8.298;2022-12-07T21:14:07;11.10;;;4.80;;
23712;SDS011;12035;49.978;8.298;2022-12-07T21:19:05;8.73;;;4.20;;
23712;SDS011;12035;49.978;8.298;2022-12-07T21:24:03;7.18;;;4.65;;
23712;SDS011;12035;49.978;8.298;2022-12-07T21:29:02;7.65;;;4.68;;
23712;SDS011;12035;49.978;8.298;2022-12-07T21:34:03;7.57;;;4.20;;
23712;SDS011;12035;49.978;8.298;2022-12-07T21:39:01;8.85;;;4.78;;
23712;SDS011;12035;49.978;8.298;2022-12-07T21:43:59;8.20;;;4.60;;
23712;SDS011;12035;49.978;8.298;2022-12-07T21:48:58;9.85;;;4.68;;
23712;SDS011;12035;49.978;8.298;2022-12-07T21:53:59;8.05;;;4.55;;
23712;SDS011;12035;49.978;8.298;2022-12-07T21:58:58;8.18;;;4.25;;
23712;SDS011;12035;49.978;8.298;2022-12-07T22:03:57;6.88;;;3.95;;
23712;SDS011;12035;49.978;8.298;2022-12-07T22:08:55;7.78;;;4.30;;
23712;SDS011;12035;49.978;8.298;2022-12-07T22:13:56;8.43;;;4.28;;
23712;SDS011;12035;49.978;8.298;2022-12-07T22:19:10;9.02;;;4.63;;
23712;SDS011;12035;49.978;8.298;2022-12-07T22:24:08;8.75;;;4.60;;
23712;SDS011;12035;49.978;8.298;2022-12-07T22:29:09;11.40;;;4.40;;
23712;SDS011;12035;49.978;8.298;2022-12-07T22:34:10;9.68;;;4.68;;
23712;SDS011;12035;49.978;8.298;2022-12-07T22:39:11;6.95;;;3.88;;
23712;SDS011;12035;49.978;8.298;2022-12-07T22:44:10;8.98;;;4.40;;
23712;SDS011;12035;49.978;8.298;2022-12-07T22:49:07;8.85;;;4.13;;
23712;SDS011;12035;49.978;8.298;2022-12-07T22:54:05;7.63;;;4.13;;
23712;SDS011;12035;49.978;8.298;2022-12-07T22:59:06;8.65;;;4.57;;
23712;SDS011;12035;49.978;8.298;2022-12-07T23:04:05;7.00;;;3.88;;
23712;SDS011;12035;49.978;8.298;2022-12-07T23:09:03;7.30;;;4.07;;
23712;SDS011;12035;49.978;8.298;2022-12-07T23:14:02;8.65;;;4.70;;
23712;SDS011;12035;49.978;8.298;2022-12-07T23:19:06;8.20;;;4.80;;
23712;SDS011;12035;49.978;8.298;2022-12-07T23:24:03;9.48;;;5.32;;
23712;SDS011;12035;49.978;8.298;2022-12-07T23:29:02;11.45;;;6.18;;
23712;SDS011;12035;49.978;8.298;2022-12-07T23:33:59;9.27;;;5.07;;
23712;SDS011;12035;49.978;8.298;2022-12-07T23:38:57;12.10;;;5.18;;
23712;SDS011;12035;49.978;8.298;2022-12-07T23:43:54;9.20;;;4.93;;
23712;SDS011;12035;49.978;8.298;2022-12-07T23:48:54;8.32;;;4.78;;
23712;SDS011;12035;49.978;8.298;2022-12-07T23:53:52;10.45;;;5.25;;
23712;SDS011;12035;49.978;8.298;2022-12-07T23:58:56;9.30;;;5.30;;
